createdAt,value
2019-01-26T00:01:23.810Z,-1.90
2019-01-26T00:04:47.916Z,-1.90
2019-01-26T00:11:18.909Z,-1.80
2019-01-26T00:14:36.955Z,-1.80
2019-01-26T00:17:06.935Z,-1.90
2019-01-26T00:23:37.155Z,-1.90
2019-01-26T00:30:10.520Z,-1.80
2019-01-26T00:36:40.403Z,-1.80
2019-01-26T00:40:05.225Z,-1.70
2019-01-26T00:46:35.425Z,-1.60
2019-01-26T00:50:00.049Z,-1.50
2019-01-26T00:56:30.197Z,-1.60
2019-01-26T00:59:54.675Z,-1.60
2019-01-26T01:06:26.038Z,-1.50
2019-01-26T01:12:57.299Z,-1.40
2019-01-26T01:19:28.219Z,-1.30
2019-01-26T01:25:58.782Z,-1.20
2019-01-26T01:32:29.344Z,-1.30
2019-01-26T01:35:53.511Z,-1.20
2019-01-26T01:42:24.359Z,-1.10
2019-01-26T01:45:48.639Z,-1.10
2019-01-26T01:52:19.382Z,-1.10
2019-01-26T01:55:43.420Z,-1.10
2019-01-26T02:02:14.001Z,-1.10
2019-01-26T02:08:44.520Z,-1.00
2019-01-26T02:12:09.318Z,-1.00
2019-01-26T02:18:39.498Z,-0.80
2019-01-26T02:21:09.389Z,-0.90
2019-01-26T02:27:40.095Z,-0.90
2019-01-26T02:34:11.047Z,-0.80
2019-01-26T02:40:42.097Z,-0.80
2019-01-26T02:47:12.798Z,-0.70
2019-01-26T02:53:43.932Z,-0.60
2019-01-26T03:00:20.294Z,-0.50
2019-01-26T03:03:44.866Z,-0.50
2019-01-26T03:10:18.141Z,-0.40
2019-01-26T03:16:48.228Z,-0.10
2019-01-26T03:23:19.082Z,0.10
2019-01-26T03:29:49.557Z,0.00
2019-01-26T03:36:20.154Z,-0.20
2019-01-26T03:42:50.460Z,0.20
2019-01-26T03:46:15.218Z,0.50
2019-01-26T03:52:45.852Z,0.50
2019-01-26T03:56:10.062Z,0.60
2019-01-26T04:02:40.315Z,0.80
2019-01-26T04:05:48.957Z,0.80
2019-01-26T04:12:19.774Z,0.90
2019-01-26T04:18:50.333Z,0.90
2019-01-26T04:25:20.887Z,0.90
2019-01-26T04:31:51.483Z,1.00
2019-01-26T04:35:15.631Z,1.00
2019-01-26T04:41:46.764Z,1.10
2019-01-26T04:45:11.160Z,1.10
2019-01-26T04:51:41.764Z,1.00
2019-01-26T04:58:12.398Z,1.00
2019-01-26T05:01:36.852Z,1.00
2019-01-26T05:08:07.284Z,0.80
2019-01-26T05:11:31.668Z,0.70
2019-01-26T05:18:02.758Z,0.40
2019-01-26T05:21:27.070Z,0.30
2019-01-26T05:27:57.412Z,0.20
2019-01-26T05:34:28.310Z,0.10
2019-01-26T05:40:58.997Z,-0.10
2019-01-26T05:47:29.571Z,-0.20
2019-01-26T05:54:00.232Z,-0.30
2019-01-26T05:57:24.238Z,-0.30
2019-01-26T06:03:55.170Z,-0.50
2019-01-26T06:10:25.669Z,-0.50
2019-01-26T06:13:49.802Z,-0.50
2019-01-26T06:20:20.744Z,-0.50
2019-01-26T06:23:44.977Z,-0.40
2019-01-26T06:30:20.974Z,-0.50
2019-01-26T06:36:51.720Z,-0.60
2019-01-26T06:40:15.958Z,-0.60
2019-01-26T06:46:47.162Z,-0.60
2019-01-26T06:53:17.752Z,-0.60
2019-01-26T06:59:48.638Z,-0.60
2019-01-26T07:06:21.008Z,-0.50
2019-01-26T07:12:51.346Z,-0.60
2019-01-26T07:19:21.856Z,-0.70
2019-01-26T07:22:45.865Z,-0.70
2019-01-26T07:29:16.040Z,-0.70
2019-01-26T07:31:45.874Z,-0.60
2019-01-26T07:38:16.947Z,-0.50
2019-01-26T07:44:47.583Z,-0.30
2019-01-26T07:48:16.727Z,-0.30
2019-01-26T07:54:44.464Z,-0.20
2019-01-26T08:01:15.877Z,-0.10
2019-01-26T08:04:40.137Z,0.00
2019-01-26T08:11:11.219Z,0.00
2019-01-26T08:14:35.189Z,0.10
2019-01-26T08:21:05.838Z,0.20
2019-01-26T08:24:30.142Z,0.20
2019-01-26T08:31:00.700Z,0.30
2019-01-26T08:37:31.913Z,0.50
2019-01-26T08:44:02.478Z,0.70
2019-01-26T08:50:33.549Z,1.00
2019-01-26T08:57:04.566Z,1.30
2019-01-26T09:03:36.491Z,1.50
2019-01-26T09:10:07.995Z,1.10
2019-01-26T09:16:38.947Z,0.90
2019-01-26T09:20:03.362Z,0.90
2019-01-26T09:26:33.364Z,0.90
2019-01-26T09:29:57.861Z,0.90
2019-01-26T09:32:27.829Z,0.90
2019-01-26T09:38:58.796Z,1.30
2019-01-26T09:45:29.596Z,1.80
2019-01-26T09:52:00.687Z,1.90
2019-01-26T09:55:24.945Z,1.80
2019-01-26T10:01:56.147Z,1.90
2019-01-26T10:05:20.720Z,2.30
2019-01-26T10:11:51.012Z,2.30
2019-01-26T10:18:21.548Z,2.70
2019-01-26T10:24:51.915Z,3.00
2019-01-26T10:31:22.395Z,3.30
2019-01-26T10:33:52.220Z,3.20
2019-01-26T10:40:27.676Z,2.80
2019-01-26T10:46:58.303Z,2.10
2019-01-26T10:50:22.713Z,2.00
2019-01-26T10:56:53.522Z,2.00
2019-01-26T11:03:24.384Z,2.00
2019-01-26T11:06:48.598Z,2.20
2019-01-26T11:13:19.611Z,2.20
2019-01-26T11:16:44.038Z,2.30
2019-01-26T11:23:14.597Z,2.10
2019-01-26T11:26:39.035Z,2.10
2019-01-26T11:33:09.529Z,2.30
2019-01-26T11:48:09.623Z,3.40
2019-01-26T11:54:42.540Z,3.00
2019-01-26T12:01:16.855Z,3.00
2019-01-26T12:07:48.102Z,3.30
2019-01-26T12:14:19.224Z,3.30
2019-01-26T12:17:43.846Z,3.20
2019-01-26T12:24:14.661Z,3.40
2019-01-26T12:27:39.655Z,3.60
2019-01-26T12:34:13.550Z,3.60
2019-01-26T12:40:44.857Z,3.80
2019-01-26T12:44:09.380Z,4.00
2019-01-26T12:50:41.470Z,3.60
2019-01-26T12:54:05.830Z,3.30
2019-01-26T13:00:36.369Z,3.20
2019-01-26T13:07:07.024Z,3.40
2019-01-26T13:10:31.560Z,3.40
2019-01-26T13:17:02.420Z,3.60
2019-01-26T13:20:27.213Z,3.60
2019-01-26T13:26:57.743Z,4.00
2019-01-26T13:33:28.666Z,4.30
2019-01-26T13:35:58.518Z,4.70
2019-01-26T13:42:29.279Z,4.70
2019-01-26T13:49:00.530Z,4.50
2019-01-26T13:55:31.621Z,4.20
2019-01-26T13:58:56.205Z,3.50
2019-01-26T14:05:26.628Z,3.20
2019-01-26T14:08:51.474Z,3.30
2019-01-26T14:15:23.306Z,3.40
2019-01-26T14:18:48.133Z,3.50
2019-01-26T14:25:19.941Z,3.70
2019-01-26T14:28:44.548Z,3.80
2019-01-26T14:35:15.601Z,3.90
2019-01-26T14:41:46.349Z,4.00
2019-01-26T14:48:16.914Z,3.90
2019-01-26T14:54:47.492Z,3.60
2019-01-26T15:01:18.186Z,3.50
2019-01-26T15:07:49.306Z,3.40
2019-01-26T15:11:14.111Z,3.30
2019-01-26T15:17:45.004Z,3.40
2019-01-26T15:24:15.650Z,3.40
2019-01-26T15:30:46.738Z,3.50
2019-01-26T15:34:11.148Z,3.40
2019-01-26T15:36:40.971Z,3.40
2019-01-26T15:43:12.328Z,3.40
2019-01-26T15:49:43.526Z,3.30
2019-01-26T15:56:13.945Z,3.10
2019-01-26T15:59:38.242Z,2.90
2019-01-26T16:06:09.245Z,2.80
2019-01-26T16:12:40.046Z,2.80
2019-01-26T16:19:11.343Z,2.80
2019-01-26T16:22:35.521Z,2.60
2019-01-26T16:29:06.705Z,2.50
2019-01-26T16:32:30.840Z,2.50
2019-01-26T16:39:01.408Z,2.50
2019-01-26T16:45:37.832Z,2.50
2019-01-26T16:52:13.968Z,2.60
2019-01-26T16:58:41.835Z,2.50
2019-01-26T17:05:12.917Z,2.40
2019-01-26T17:11:43.596Z,2.50
2019-01-26T17:18:14.571Z,2.40
2019-01-26T17:21:38.891Z,2.40
2019-01-26T17:28:11.123Z,2.40
2019-01-26T17:31:35.214Z,2.40
2019-01-26T17:38:06.416Z,2.40
2019-01-26T17:40:36.480Z,2.30
2019-01-26T17:47:07.498Z,2.40
2019-01-26T17:53:39.368Z,2.40
2019-01-26T17:57:03.868Z,2.30
2019-01-26T18:03:34.778Z,2.70
2019-01-26T18:10:08.016Z,3.00
2019-01-26T18:13:32.290Z,3.20
2019-01-26T18:20:02.993Z,3.40
2019-01-26T18:26:34.049Z,3.60
2019-01-26T18:29:58.633Z,3.60
2019-01-26T18:36:29.815Z,3.70
2019-01-26T18:43:00.543Z,3.70
2019-01-26T18:49:31.162Z,3.80
2019-01-26T18:56:02.183Z,3.80
2019-01-26T18:59:21.491Z,3.80
2019-01-26T19:05:53.490Z,3.90
2019-01-26T19:09:17.874Z,3.90
2019-01-26T19:15:48.244Z,3.90
2019-01-26T19:19:12.043Z,3.90
2019-01-26T19:25:42.488Z,3.90
2019-01-26T19:32:14.070Z,3.90
2019-01-26T19:35:38.430Z,4.00
2019-01-26T19:42:09.221Z,3.90
2019-01-26T19:44:39.234Z,3.80
2019-01-26T19:51:10.471Z,3.80
2019-01-26T19:54:34.454Z,3.70
2019-01-26T20:01:05.548Z,3.50
2019-01-26T20:07:36.280Z,3.40
2019-01-26T20:11:01.054Z,3.30
2019-01-26T20:17:31.547Z,3.30
2019-01-26T20:20:55.895Z,3.30
2019-01-26T20:27:26.888Z,3.40
2019-01-26T20:33:57.592Z,3.40
2019-01-26T20:37:21.949Z,3.50
2019-01-26T20:43:52.343Z,3.60
2019-01-26T20:50:23.437Z,3.70
2019-01-26T20:56:53.983Z,3.70
2019-01-26T21:03:24.691Z,3.90
2019-01-26T21:09:56.530Z,3.90
2019-01-26T21:13:21.427Z,3.90
2019-01-26T21:19:52.696Z,3.80
2019-01-26T21:26:22.910Z,3.80
2019-01-26T21:32:53.910Z,3.90
2019-01-26T21:39:24.902Z,3.90
2019-01-26T21:42:49.372Z,3.90
2019-01-26T21:45:19.360Z,3.80
2019-01-26T21:51:50.302Z,3.70
2019-01-26T21:58:20.643Z,3.60
2019-01-26T22:04:50.668Z,3.30
2019-01-26T22:08:15.005Z,3.20
2019-01-26T22:14:45.196Z,3.20
2019-01-26T22:21:16.075Z,3.10
2019-01-26T22:27:48.130Z,3.00
2019-01-26T22:34:18.489Z,2.80
2019-01-26T22:37:42.957Z,2.70
2019-01-26T22:44:13.071Z,2.60
2019-01-26T22:46:43.010Z,2.60
2019-01-26T22:53:13.963Z,2.60
2019-01-26T22:59:47.801Z,2.60
2019-01-26T23:06:24.563Z,2.40
2019-01-26T23:13:00.924Z,2.30
2019-01-26T23:19:37.529Z,2.30
2019-01-26T23:26:13.950Z,2.30
2019-01-26T23:29:38.096Z,2.30
2019-01-26T23:36:08.758Z,2.30
2019-01-26T23:39:32.733Z,2.20
2019-01-26T23:46:03.050Z,2.10
2019-01-26T23:52:33.549Z,2.10
2019-01-26T23:55:57.857Z,2.00
